Time,TemperatureF,DewpointF,PressureIn,WindDirection,WindDirectionDegrees,WindSpeedMPH,WindSpeedGustMPH,Humidity,HourlyPrecipIn,Conditions,Clouds,dailyrainin,SoftwareType,DateUTC
2013-02-15 00:00:00,37.8,28.5,30.21,SW,235,0.0,2.7,69,-99.99,,,0.00,VWS V14.01,2013-02-15 05:00:00,
2013-02-15 00:30:00,38.5,29.6,30.21,SW,235,0.0,4.0,70,-99.99,,,0.00,VWS V14.01,2013-02-15 05:30:00,
2013-02-15 01:00:00,38.1,28.9,30.21,SW,235,0.0,3.1,69,-99.99,,,0.00,VWS V14.01,2013-02-15 06:00:00,
2013-02-15 01:30:00,38.3,29.0,30.21,SW,235,0.0,3.1,69,-99.99,,,0.00,VWS V14.01,2013-02-15 06:30:00,
2013-02-15 02:00:00,37.6,28.4,30.21,SW,234,0.0,0.0,69,-99.99,,,0.00,VWS V14.01,2013-02-15 07:00:00,
2013-02-15 02:30:00,37.4,28.5,30.21,SW,234,0.0,0.0,70,-99.99,,,0.00,VWS V14.01,2013-02-15 07:30:00,
2013-02-15 03:00:00,37.4,28.5,30.21,SW,234,0.0,0.0,70,-99.99,,,0.00,VWS V14.01,2013-02-15 08:00:00,
2013-02-15 03:30:00,37.0,28.5,30.21,SW,232,0.0,0.0,71,-99.99,,,0.00,VWS V14.01,2013-02-15 08:30:00,
2013-02-15 04:00:00,36.5,28.4,30.21,SW,235,0.0,3.1,72,-99.99,,,0.00,VWS V14.01,2013-02-15 09:00:00,
2013-02-15 04:30:00,36.1,28.3,30.21,SW,234,0.0,4.0,73,-99.99,,,0.00,VWS V14.01,2013-02-15 09:30:00,
2013-02-15 05:00:00,35.6,28.1,30.21,SW,235,0.0,3.1,74,-99.99,,,0.00,VWS V14.01,2013-02-15 10:00:00,
2013-02-15 05:30:00,35.6,28.5,30.21,SW,234,0.0,2.7,75,-99.99,,,0.00,VWS V14.01,2013-02-15 10:30:00,
2013-02-15 06:00:00,36.1,29.3,30.21,SW,234,0.0,0.0,76,-99.99,,,0.00,VWS V14.01,2013-02-15 11:00:00,
2013-02-15 06:30:00,35.2,28.1,30.24,SW,232,0.0,3.1,75,-99.99,,,0.00,VWS V14.01,2013-02-15 11:30:00,
2013-02-15 07:00:00,34.7,27.9,30.24,SW,220,0.0,5.4,76,-99.99,,,0.00,VWS V14.01,2013-02-15 12:00:00,
2013-02-15 07:30:00,34.5,27.8,30.24,SW,222,3.1,4.9,76,-99.99,,,0.00,VWS V14.01,2013-02-15 12:30:00,
2013-02-15 08:00:00,36.0,29.5,30.24,SSW,207,3.1,6.9,77,-99.99,,,0.00,VWS V14.01,2013-02-15 13:00:00,
2013-02-15 08:30:00,36.9,30.0,30.27,SSW,201,0.0,6.9,76,-99.99,,,0.00,VWS V14.01,2013-02-15 13:30:00,
2013-02-15 09:00:00,38.1,30.9,30.27,SSW,199,0.0,6.7,75,-99.99,,,0.00,VWS V14.01,2013-02-15 14:00:00,
2013-02-15 09:30:00,39.0,31.1,30.24,South,181,3.1,6.9,73,-99.99,,,0.00,VWS V14.01,2013-02-15 14:30:00,
2013-02-15 10:00:00,40.6,31.6,30.24,SE,143,4.9,7.8,70,-99.99,,,0.00,VWS V14.01,2013-02-15 15:00:00,
2013-02-15 10:30:00,42.6,31.7,30.24,ESE,112,0.0,6.9,65,-99.99,,,0.00,VWS V14.01,2013-02-15 15:30:00,
2013-02-15 11:00:00,45.9,32.4,30.24,ESE,111,3.1,8.7,59,-99.99,,,0.00,VWS V14.01,2013-02-15 16:00:00,
2013-02-15 11:30:00,48.0,30.8,30.24,SSE,166,4.5,6.7,51,-99.99,,,0.00,VWS V14.01,2013-02-15 16:30:00,
2013-02-15 12:00:00,49.3,28.9,30.24,SW,221,5.8,9.2,45,-99.99,,,0.00,VWS V14.01,2013-02-15 17:00:00,
2013-02-15 12:30:00,50.9,27.5,30.24,SW,219,2.7,13.9,40,-99.99,,,0.00,VWS V14.01,2013-02-15 17:30:00,
2013-02-15 13:00:00,51.6,26.2,30.21,SW,227,4.0,10.1,37,-99.99,,,0.00,VWS V14.01,2013-02-15 18:00:00,
2013-02-15 13:30:00,52.2,26.0,30.21,SW,216,5.4,13.0,36,-99.99,,,0.00,VWS V14.01,2013-02-15 18:30:00,
2013-02-15 14:00:00,51.8,27.0,30.18,WSW,237,3.6,13.0,38,-99.99,,,0.00,VWS V14.01,2013-02-15 19:00:00,
2013-02-15 14:30:00,53.6,28.0,30.18,SW,226,4.9,12.1,37,-99.99,,,0.00,VWS V14.01,2013-02-15 19:30:00,
2013-02-15 15:00:00,49.8,27.7,30.18,SSW,210,5.4,10.5,42,-99.99,,,0.00,VWS V14.01,2013-02-15 20:00:00,
2013-02-15 15:30:00,47.8,32.5,30.18,WSW,241,3.6,10.1,55,-99.99,,,0.00,VWS V14.01,2013-02-15 20:30:00,
2013-02-15 16:00:00,50.7,34.7,30.18,WSW,249,0.0,11.2,54,-99.99,,,0.00,VWS V14.01,2013-02-15 21:00:00,
2013-02-15 16:30:00,46.6,30.8,30.18,WNW,302,0.0,10.5,54,-99.99,,,0.00,VWS V14.01,2013-02-15 21:30:00,
2013-02-15 17:00:00,44.4,30.6,30.21,WNW,303,6.7,10.1,58,-99.99,,,0.00,VWS V14.01,2013-02-15 22:00:00,
2013-02-15 17:30:00,42.4,26.5,30.21,WNW,300,3.1,10.1,53,-99.99,,,0.00,VWS V14.01,2013-02-15 22:30:00,
2013-02-15 18:00:00,41.4,26.4,30.21,WNW,301,3.1,8.7,55,-99.99,,,0.00,VWS V14.01,2013-02-15 23:00:00,
2013-02-15 19:00:00,39.7,30.1,30.24,WNW,302,0.0,0.0,68,-99.99,,,0.00,VWS V14.01,2013-02-16 00:00:00,
2013-02-15 19:30:00,39.4,30.4,30.24,WNW,303,0.0,0.0,70,-99.99,,,0.00,VWS V14.01,2013-02-16 00:30:00,
2013-02-15 20:00:00,38.7,30.4,30.24,NW,305,6.9,6.9,72,-99.99,,,0.04,VWS V14.01,2013-02-16 01:00:00,
2013-02-15 20:30:00,37.8,30.9,30.24,WNW,303,0.0,6.9,76,-99.99,,,0.04,VWS V14.01,2013-02-16 01:30:00,
2013-02-15 21:00:00,36.9,30.6,30.24,WNW,297,2.7,10.1,78,-99.99,,,0.04,VWS V14.01,2013-02-16 02:00:00,
2013-02-15 21:30:00,36.9,31.0,30.24,WNW,300,0.0,4.9,79,-99.99,,,0.04,VWS V14.01,2013-02-16 02:30:00,
2013-02-15 22:00:00,36.3,30.8,30.21,WNW,303,0.0,6.7,80,-99.99,,,0.04,VWS V14.01,2013-02-16 03:00:00,
2013-02-15 22:30:00,35.8,29.9,30.21,WNW,303,3.6,6.7,79,-99.99,,,0.04,VWS V14.01,2013-02-16 03:30:00,
2013-02-15 23:00:00,35.1,28.9,30.21,WNW,303,0.0,4.9,78,-99.99,,,0.04,VWS V14.01,2013-02-16 04:00:00,
2013-02-15 23:30:00,34.7,28.2,30.21,WNW,298,2.7,5.8,77,-99.99,,,0.04,VWS V14.01,2013-02-16 04:30:00,